BAW84C ESGG-EGKK
Flight info
| Callsign | BAW84C |
|---|---|
| Flight time | N/A |
| Altitude | 40000 |
| Route | VADIN DCT LAPMA DCT ABINO DCT ATTUS DCT JUIST DCT BEDUM DCT SPY DCT GALSO Q63 ARREK Y4 TEBRA |
| Aircraft | B77W/H-V/N |
Departure
| Time | 2026-05-07 17:37 |
|---|---|
| Airport | Göteborg Landvetter Airport (ESGG) |
Arrival
| Time | N/A |
|---|---|
| Airport | London Gatwick Airport (EGKK) |
| Time | Latitude | Longitude | Altitude | Speed | Heading |
|---|---|---|---|---|---|
| 2026-05-07 17:10 | 57.67246 | 12.29705 | 518 ft | 0 kts | 116° |
| 2026-05-07 17:23 | 57.67246 | 12.29704 | 518 ft | 0 kts | 116° |
| 2026-05-07 17:29 | 57.67248 | 12.29694 | 518 ft | 2 kts | 115° |
| 2026-05-07 17:29 | 57.67256 | 12.29667 | 518 ft | 2 kts | 116° |
| 2026-05-07 17:29 | 57.67259 | 12.29637 | 518 ft | 2 kts | 67° |
| 2026-05-07 17:30 | 57.67251 | 12.29611 | 518 ft | 2 kts | 52° |
| 2026-05-07 17:30 | 57.67240 | 12.29588 | 518 ft | 2 kts | 34° |
| 2026-05-07 17:30 | 57.67225 | 12.29573 | 518 ft | 2 kts | 26° |
| 2026-05-07 17:30 | 57.67222 | 12.29569 | 518 ft | 0 kts | 27° |
| 2026-05-07 17:33 | 57.67223 | 12.29571 | 518 ft | 0 kts | 27° |
| 2026-05-07 17:33 | 57.67228 | 12.29575 | 518 ft | 1 kts | 26° |
| 2026-05-07 17:33 | 57.67236 | 12.29583 | 518 ft | 2 kts | 27° |
| 2026-05-07 17:34 | 57.67261 | 12.29607 | 518 ft | 8 kts | 27° |
| 2026-05-07 17:34 | 57.67327 | 12.29648 | 519 ft | 11 kts | 352° |
| 2026-05-07 17:34 | 57.67383 | 12.29552 | 519 ft | 11 kts | 302° |
| 2026-05-07 17:34 | 57.67422 | 12.29424 | 519 ft | 11 kts | 298° |
| 2026-05-07 17:35 | 57.67450 | 12.29304 | 519 ft | 3 kts | 289° |
| 2026-05-07 17:35 | 57.67452 | 12.29288 | 519 ft | 0 kts | 285° |
| 2026-05-07 17:35 | 57.67454 | 12.29272 | 519 ft | 4 kts | 282° |
| 2026-05-07 17:36 | 57.67454 | 12.29163 | 518 ft | 13 kts | 260° |
| 2026-05-07 17:36 | 57.67394 | 12.28993 | 517 ft | 17 kts | 208° |
| 2026-05-07 17:36 | 57.67382 | 12.28981 | 517 ft | 1 kts | 207° |
| 2026-05-07 17:36 | 57.67225 | 12.28834 | 518 ft | 72 kts | 207° |
| 2026-05-07 17:37 | 57.66436 | 12.28130 | 512 ft | 174 kts | 203° |
| 2026-05-07 17:37 | 57.65241 | 12.27040 | 1236 ft | 197 kts | 211° |
| 2026-05-07 17:37 | 57.64020 | 12.25843 | 2436 ft | 199 kts | 208° |
| 2026-05-07 17:37 | 57.62755 | 12.24651 | 3217 ft | 214 kts | 206° |
| 2026-05-07 17:38 | 57.61287 | 12.23466 | 3563 ft | 246 kts | 195° |
| 2026-05-07 17:38 | 57.59541 | 12.23012 | 4303 ft | 258 kts | 184° |
| 2026-05-07 17:38 | 57.57739 | 12.22802 | 5300 ft | 261 kts | 182° |
| 2026-05-07 17:38 | 57.55917 | 12.22581 | 6145 ft | 265 kts | 183° |
| 2026-05-07 17:39 | 57.54067 | 12.22310 | 7245 ft | 267 kts | 186° |
| 2026-05-07 17:39 | 57.52195 | 12.21926 | 8236 ft | 274 kts | 187° |
| 2026-05-07 17:39 | 57.50280 | 12.21515 | 9265 ft | 279 kts | 188° |
| 2026-05-07 17:39 | 57.48331 | 12.21099 | 10252 ft | 284 kts | 188° |
| 2026-05-07 17:40 | 57.46313 | 12.20672 | 10933 ft | 303 kts | 188° |
| 2026-05-07 17:40 | 57.44148 | 12.19962 | 11133 ft | 329 kts | 202° |
| 2026-05-07 17:40 | 57.42173 | 12.17585 | 11519 ft | 346 kts | 225° |
| 2026-05-07 17:40 | 57.40456 | 12.14325 | 12319 ft | 359 kts | 227° |
| 2026-05-07 17:41 | 57.38700 | 12.10950 | 13413 ft | 366 kts | 227° |
| 2026-05-07 17:41 | 57.36920 | 12.07538 | 14512 ft | 371 kts | 227° |
| 2026-05-07 17:41 | 57.35104 | 12.04083 | 15560 ft | 376 kts | 227° |
| 2026-05-07 17:41 | 57.33275 | 12.00624 | 16597 ft | 382 kts | 227° |
| 2026-05-07 17:42 | 57.31381 | 11.97063 | 17628 ft | 388 kts | 227° |
| 2026-05-07 17:42 | 57.29467 | 11.93478 | 18591 ft | 394 kts | 227° |
| 2026-05-07 17:42 | 57.27548 | 11.89895 | 19470 ft | 400 kts | 227° |
| 2026-05-07 17:42 | 57.25577 | 11.86222 | 20360 ft | 405 kts | 227° |
| 2026-05-07 17:43 | 57.23599 | 11.82545 | 21206 ft | 410 kts | 227° |
| 2026-05-07 17:43 | 57.21552 | 11.78743 | 22073 ft | 416 kts | 227° |
| 2026-05-07 17:43 | 57.19498 | 11.74931 | 22886 ft | 422 kts | 227° |
| 2026-05-07 17:43 | 57.17412 | 11.71068 | 23711 ft | 428 kts | 227° |
| 2026-05-07 17:44 | 57.15300 | 11.67181 | 24386 ft | 430 kts | 225° |
| 2026-05-07 17:44 | 57.12892 | 11.63830 | 24927 ft | 442 kts | 209° |
| 2026-05-07 17:44 | 57.10029 | 11.61850 | 25141 ft | 443 kts | 199° |
| 2026-05-07 17:44 | 57.07056 | 11.60219 | 25131 ft | 447 kts | 198° |
| 2026-05-07 17:45 | 57.04072 | 11.58586 | 25135 ft | 447 kts | 199° |
| 2026-05-07 17:45 | 57.01102 | 11.56932 | 25128 ft | 446 kts | 199° |
| 2026-05-07 17:45 | 56.98138 | 11.55251 | 25123 ft | 445 kts | 199° |
| 2026-05-07 17:45 | 56.95170 | 11.53544 | 25485 ft | 449 kts | 199° |
| 2026-05-07 17:46 | 56.92182 | 11.51813 | 26198 ft | 452 kts | 199° |
| 2026-05-07 17:46 | 56.89170 | 11.50066 | 26903 ft | 455 kts | 199° |
| 2026-05-07 17:46 | 56.86140 | 11.48312 | 27537 ft | 459 kts | 199° |
| 2026-05-07 17:46 | 56.83074 | 11.46540 | 28114 ft | 464 kts | 199° |
| 2026-05-07 17:47 | 56.79981 | 11.44756 | 28714 ft | 469 kts | 199° |
| 2026-05-07 17:47 | 56.76846 | 11.42953 | 29270 ft | 473 kts | 199° |
| 2026-05-07 17:47 | 56.73702 | 11.41148 | 29821 ft | 477 kts | 199° |
| 2026-05-07 17:47 | 56.70515 | 11.39321 | 30320 ft | 481 kts | 199° |
| 2026-05-07 17:48 | 56.67465 | 11.37563 | 30681 ft | 483 kts | 200° |
| 2026-05-07 17:48 | 56.64376 | 11.35124 | 31035 ft | 485 kts | 211° |
| 2026-05-07 17:48 | 56.61569 | 11.31760 | 31536 ft | 483 kts | 219° |
| 2026-05-07 17:48 | 56.59102 | 11.27782 | 32106 ft | 479 kts | 229° |
| 2026-05-07 17:49 | 56.56922 | 11.23240 | 32632 ft | 476 kts | 231° |
| 2026-05-07 17:49 | 56.54790 | 11.18648 | 33122 ft | 477 kts | 231° |
| 2026-05-07 17:49 | 56.52659 | 11.14049 | 33639 ft | 476 kts | 231° |
| 2026-05-07 17:49 | 56.50519 | 11.09465 | 34159 ft | 475 kts | 231° |
| 2026-05-07 17:50 | 56.48378 | 11.04927 | 34610 ft | 474 kts | 231° |
| 2026-05-07 17:50 | 56.46229 | 11.00410 | 35061 ft | 473 kts | 230° |
| 2026-05-07 17:50 | 56.44077 | 10.95914 | 35491 ft | 472 kts | 230° |
| 2026-05-07 17:50 | 56.41925 | 10.91436 | 35908 ft | 471 kts | 230° |
| 2026-05-07 17:51 | 56.39775 | 10.86973 | 36339 ft | 470 kts | 230° |
| 2026-05-07 17:51 | 56.37629 | 10.82528 | 36754 ft | 470 kts | 230° |
| 2026-05-07 17:51 | 56.35488 | 10.78100 | 37147 ft | 469 kts | 230° |
| 2026-05-07 17:51 | 56.33340 | 10.73664 | 37538 ft | 468 kts | 230° |
| 2026-05-07 17:52 | 56.31201 | 10.69254 | 37931 ft | 467 kts | 230° |
| 2026-05-07 17:52 | 56.29050 | 10.64826 | 38092 ft | 471 kts | 229° |
| 2026-05-07 17:52 | 56.24745 | 10.55988 | 38125 ft | 472 kts | 229° |
| 2026-05-07 17:53 | 56.20440 | 10.47185 | 38125 ft | 467 kts | 229° |
| 2026-05-07 17:53 | 56.18286 | 10.42791 | 38239 ft | 470 kts | 229° |
| 2026-05-07 17:53 | 56.16123 | 10.38388 | 38574 ft | 470 kts | 229° |
| 2026-05-07 17:54 | 56.13965 | 10.34003 | 38939 ft | 468 kts | 229° |
| 2026-05-07 17:54 | 56.11814 | 10.29641 | 39238 ft | 466 kts | 229° |
| 2026-05-07 17:54 | 56.09668 | 10.25295 | 39499 ft | 466 kts | 229° |
| 2026-05-07 17:54 | 56.07516 | 10.20945 | 39731 ft | 466 kts | 229° |
| 2026-05-07 17:55 | 56.05369 | 10.16614 | 39967 ft | 466 kts | 229° |
| 2026-05-07 17:55 | 56.03216 | 10.12275 | 40038 ft | 468 kts | 229° |
| 2026-05-07 17:55 | 55.98880 | 10.03606 | 40104 ft | 466 kts | 226° |
| 2026-05-07 17:56 | 55.94022 | 9.96038 | 40104 ft | 462 kts | 216° |
| 2026-05-07 17:56 | 55.88732 | 9.89860 | 40096 ft | 446 kts | 213° |
| 2026-05-07 17:57 | 55.84364 | 9.84858 | 40116 ft | 453 kts | 213° |
| 2026-05-07 17:57 | 55.78093 | 9.77634 | 40123 ft | 465 kts | 214° |
| 2026-05-07 17:58 | 55.72637 | 9.71332 | 40125 ft | 470 kts | 214° |
| 2026-05-07 17:58 | 55.67138 | 9.64992 | 40121 ft | 472 kts | 213° |
| 2026-05-07 17:59 | 55.61657 | 9.58695 | 40121 ft | 472 kts | 213° |
| 2026-05-07 17:59 | 55.56147 | 9.52389 | 40124 ft | 471 kts | 213° |
| 2026-05-07 18:00 | 55.50653 | 9.46122 | 40127 ft | 469 kts | 213° |
| 2026-05-07 18:00 | 55.45179 | 9.39900 | 40127 ft | 467 kts | 213° |
| 2026-05-07 18:01 | 55.39723 | 9.33718 | 40129 ft | 465 kts | 213° |
| 2026-05-07 18:01 | 55.34281 | 9.27572 | 40128 ft | 464 kts | 213° |
| 2026-05-07 18:02 | 55.26130 | 9.18404 | 40128 ft | 464 kts | 213° |
| 2026-05-07 18:03 | 55.20691 | 9.12312 | 40132 ft | 464 kts | 213° |
| 2026-05-07 18:03 | 55.15246 | 9.06233 | 40130 ft | 465 kts | 213° |
| 2026-05-07 18:04 | 55.09793 | 9.00165 | 40119 ft | 465 kts | 213° |
| 2026-05-07 18:04 | 55.04354 | 8.94132 | 40121 ft | 466 kts | 213° |
| 2026-05-07 18:05 | 54.98876 | 8.88074 | 40117 ft | 467 kts | 213° |